ADDS METAR Data INFO
IDs: Format: Raw Decoded Include TAF

Data at: 0943 UTC 25 Jun 2018

KCPW 250930Z AUTO 32006KT 10SM CLR 05/M07 A3052 RMK AO2
KCPW 250912Z AUTO 32008KT 10SM CLR 05/M08 A3052 RMK AO2
KCPW 250854Z AUTO 33008KT 10SM CLR 05/M09 A3053 RMK AO2
KCPW 250830Z AUTO 32006KT 10SM CLR 05/M09 A3053 RMK AO2
KCPW 250812Z AUTO 33005KT 10SM CLR 05/M09 A3053 RMK AO2
KCPW 250752Z AUTO 33006KT 10SM CLR 05/M09 A3053 RMK AO2
KCPW 250734Z AUTO 33005KT 10SM CLR 05/M08 A3053 RMK AO2
KCPW 250711Z AUTO 36005KT 10SM CLR 05/M08 A3053 RMK AO2
KCPW 250654Z AUTO 35004KT 10SM CLR 05/M07 A3053 RMK AO2
KCPW 250630Z AUTO 32006KT 10SM CLR 06/M08 A3054 RMK AO2
KCPW 250612Z AUTO 34003KT 10SM CLR 06/M08 A3054 RMK AO2
KCPW 250554Z AUTO 33004KT 10SM CLR 06/M08 A3053 RMK AO2
KCPW 250530Z AUTO 32004KT 10SM CLR 06/M08 A3054 RMK AO2
KCPW 250512Z AUTO 32004KT 10SM CLR 07/M09 A3054 RMK AO2
KCPW 250454Z AUTO 02003KT 10SM CLR 07/M09 A3054 RMK AO2
KCPW 250430Z AUTO 00000KT 10SM CLR 07/M09 A3055 RMK AO2
KCPW 250412Z AUTO 31003KT 10SM CLR 08/M09 A3055 RMK AO2
KCPW 250352Z AUTO 30005KT 10SM CLR 08/M10 A3054 RMK AO2 LTG DSNT E
KCPW 250329Z AUTO 31004KT 10SM CLR 08/M11 A3053 RMK AO2
KCPW 250312Z AUTO 30003KT 10SM CLR 09/M11 A3053 RMK AO2 LTG DSNT NE
KCPW 250254Z AUTO 29004KT 10SM CLR 10/M12 A3052 RMK AO2
KCPW 250230Z AUTO 29005KT 10SM CLR 10/M11 A3052 RMK AO2 LTG DSNT NE
KCPW 250212Z AUTO 00000KT 10SM CLR 11/M11 A3052 RMK AO2
KCPW 250153Z AUTO 00000KT 10SM CLR 12/M10 A3051 RMK AO2 LTG DSNT NE
KCPW 250130Z AUTO 00000KT 10SM CLR 12/M10 A3050 RMK AO2
KCPW 250112Z AUTO 24006KT 10SM SCT110 12/M10 A3050 RMK AO2
KCPW 250054Z AUTO 25004KT 10SM SCT120 12/M10 A3050 RMK AO2
KCPW 250030Z AUTO 25007G18KT 10SM SCT110 13/M10 A3048 RMK AO2 LTG DSNT NE
KCPW 250012Z AUTO 21016G26KT 10SM BKN110 13/M11 A3047 RMK AO2
KCPW 242352Z AUTO 22010G21KT 10SM SCT120 13/M10 A3047 RMK AO2 LTG DSNT NE
KCPW 242329Z AUTO 21012G26KT 170V240 10SM CLR 14/M11 A3046 RMK AO2
KCPW 242312Z AUTO 20012G25KT 170V240 10SM CLR 15/M11 A3046 RMK AO2
KCPW 242253Z AUTO 24012G30KT 170V270 10SM CLR 15/M10 A3047 RMK AO2
KCPW 242230Z AUTO 24007G17KT 200V260 10SM CLR 16/M08 A3046 RMK AO2 LTG DSNT NE
KCPW 242212Z AUTO 22015G23KT 190V250 10SM CLR 15/M09 A3046 RMK AO2
KCPW 242154Z AUTO 22014G25KT 10SM CLR 15/M09 A3045 RMK AO2
KCPW 242130Z AUTO 23013G24KT 10SM CLR 14/M07 A3045 RMK AO2 LTG DSNT NE
KCPW 242112Z AUTO 24015G30KT 10SM CLR 15/M08 A3045 RMK AO2
KCPW 242054Z AUTO 24014G32KT 220V290 10SM CLR 15/M07 A3044 RMK AO2 LTG DSNT NE
KCPW 242030Z AUTO 21013G27KT 180V250 10SM CLR 15/M06 A3043 RMK AO2 LTG DSNT NE
KCPW 242012Z AUTO 25013G29KT 10SM SCT100 15/M07 A3044 RMK AO2 LTG DSNT N AND NE
KCPW 241953Z AUTO 22022G34KT 10SM CLR 14/M07 A3042 RMK AO2 LTG DSNT NE
KCPW 241929Z AUTO 21021G37KT 10SM SCT090 13/M07 A3041 RMK AO2
KCPW 241912Z AUTO 22018G35KT 180V240 10SM SCT090 SCT110 14/M04 A3042 RMK AO2 LTG DSNT N
KCPW 241854Z AUTO 21026G37KT 10SM SCT090 SCT110 14/M04 A3042 RMK AO2 LTG DSNT N
KCPW 241830Z AUTO 19021G33KT 10SM CLR 14/M03 A3043 RMK AO2
KCPW 241812Z AUTO 19018G28KT 10SM CLR 13/M04 A3045 RMK AO2 LTG DSNT N
KCPW 241752Z AUTO 19018G25KT 10SM CLR 13/M03 A3045 RMK AO2
KCPW 241730Z AUTO 20015G22KT 190V250 10SM CLR 12/M04 A3045 RMK AO2 LTG DSNT N
KCPW 241712Z AUTO 20013G18KT 10SM CLR 12/M03 A3045 RMK AO2 LTG DSNT N AND NW
KCPW 241653Z AUTO 21013G19KT 10SM CLR 12/M04 A3045 RMK AO2
KCPW 241629Z AUTO 20011G16KT 170V230 10SM CLR 12/M05 A3045 RMK AO2
KCPW 241611Z AUTO 21007G16KT 180V240 10SM CLR 11/M04 A3045 RMK AO2 LTG DSNT N
KCPW 241554Z AUTO 22009G16KT 10SM CLR 10/M06 A3045 RMK AO2
KCPW 241530Z AUTO 20010G15KT 10SM CLR 08/M07 A3045 RMK AO2 LTG DSNT N
KCPW 241512Z AUTO 21011G17KT 10SM CLR 08/M07 A3045 RMK AO2
KCPW 241454Z AUTO 22012G16KT 10SM CLR 08/M07 A3044 RMK AO2
KCPW 241430Z AUTO 22013G18KT 10SM CLR 07/M08 A3044 RMK AO2
KCPW 241412Z AUTO 21013G18KT 10SM CLR 07/M08 A3043 RMK AO2
KCPW 241352Z AUTO 22012G17KT 10SM CLR 06/M10 A3043 RMK AO2
KCPW 241329Z AUTO 22011G16KT 10SM CLR 06/M10 A3042 RMK AO2
KCPW 241312Z AUTO 22010KT 10SM CLR 07/M11 A3042 RMK AO2
KCPW 241254Z AUTO 22009KT 10SM CLR 07/M11 A3042 RMK AO2
KCPW 241230Z AUTO 22008KT 10SM CLR 07/M11 A3042 RMK AO2
KCPW 241212Z AUTO 22007KT 10SM CLR 07/M11 A3042 RMK AO2
KCPW 241154Z AUTO 25007KT 10SM CLR 08/M11 A3042 RMK AO2
KCPW 241130Z AUTO 25006KT 10SM CLR 08/M12 A3042 RMK AO2
KCPW 241112Z AUTO 22006KT 10SM CLR 08/M12 A3042 RMK AO2
KCPW 241054Z AUTO 23007KT 10SM CLR 08/M12 A3041 RMK AO2
KCPW 241030Z AUTO 22008KT 10SM CLR 07/M11 A3042 RMK AO2
KCPW 241012Z AUTO 23009G15KT 10SM CLR 08/M11 A3041 RMK AO2
KCPW 240952Z AUTO 22012G15KT 10SM CLR 08/M11 A3041 RMK AO2
KCPW 240930Z AUTO 22011KT 10SM CLR 08/M11 A3041 RMK AO2
KCPW 240912Z AUTO 21010KT 10SM CLR 09/M12 A3041 RMK AO2
KCPW 240853Z AUTO 23010G16KT 10SM CLR 09/M12 A3041 RMK AO2
KCPW 240829Z AUTO 23014G20KT 10SM CLR 10/M12 A3041 RMK AO2
KCPW 240811Z AUTO 22013G21KT 190V250 10SM CLR 10/M12 A3041 RMK AO2
KCPW 240754Z AUTO 22012G19KT 10SM CLR 10/M12 A3041 RMK AO2
KCPW 240730Z AUTO 22011G15KT 10SM CLR 09/M11 A3042 RMK AO2
KCPW 240712Z AUTO 22011G14KT 10SM CLR 09/M12 A3042 RMK AO2
KCPW 240653Z AUTO 22011KT 10SM CLR 10/M12 A3042 RMK AO2 LTG DSNT N
KCPW 240629Z AUTO 22011G18KT 10SM CLR 10/M12 A3043 RMK AO2 LTG DSNT NW
KCPW 240611Z AUTO 22010G15KT 10SM CLR 10/M12 A3043 RMK AO2
KCPW 240554Z AUTO 22011G16KT 10SM CLR 11/M12 A3043 RMK AO2 LTG DSNT NW
KCPW 240530Z AUTO 23007G17KT 10SM CLR 11/M12 A3045 RMK AO2
KCPW 240512Z AUTO 24008KT 10SM CLR 11/M12 A3045 RMK AO2
KCPW 240454Z AUTO 24011G20KT 10SM CLR 11/M12 A3045 RMK AO2
KCPW 240430Z AUTO 25011G16KT 10SM CLR 11/M11 A3046 RMK AO2
KCPW 240412Z AUTO 24009G15KT 10SM CLR 10/M11 A3046 RMK AO2
KCPW 240353Z AUTO 22011G18KT 10SM CLR 10/M11 A3046 RMK AO2
KCPW 240329Z AUTO 23011G15KT 10SM CLR 11/M11 A3047 RMK AO2
KCPW 240312Z AUTO 22009G14KT 10SM CLR 10/M10 A3046 RMK AO2
KCPW 240254Z AUTO 24009G19KT 10SM CLR 11/M10 A3047 RMK AO2
KCPW 240230Z AUTO 23008G15KT 200V270 10SM CLR 11/M10 A3046 RMK AO2
KCPW 240212Z AUTO 24008G22KT 10SM CLR 12/M09 A3046 RMK AO2
KCPW 240154Z AUTO 23011G24KT 10SM CLR 12/M08 A3045 RMK AO2
KCPW 240130Z AUTO 23012G25KT 200V260 10SM CLR 13/M07 A3045 RMK AO2
KCPW 240112Z AUTO 24009G24KT 10SM CLR 13/M07 A3045 RMK AO2
KCPW 240053Z AUTO 22017G26KT 10SM CLR 13/M08 A3043 RMK AO2 LTG DSNT N
KCPW 240029Z AUTO 22013G24KT 10SM BKN100 15/M07 A3043 RMK AO2 LTG DSNT NE
KCPW 240012Z AUTO 21018G27KT 10SM BKN110 14/M08 A3043 RMK AO2
KCPW 232354Z AUTO 23013G21KT 190V260 10SM BKN110 14/M07 A3044 RMK AO2 LTG DSNT NE AND NW
KCPW 232330Z AUTO 21016G22KT 10SM SCT120 14/M08 A3043 RMK AO2
KCPW 232312Z AUTO 22018G26KT 10SM CLR 15/M08 A3043 RMK AO2
KCPW 232254Z AUTO 20017G28KT 10SM SCT110 15/M07 A3043 RMK AO2
KCPW 232230Z AUTO 20020G28KT 10SM SCT100 15/M07 A3043 RMK AO2
KCPW 232212Z AUTO 22009G21KT 170V250 10SM SCT110 15/M07 A3044 RMK AO2
KCPW 232154Z AUTO 22013G22KT 10SM BKN120 15/M08 A3045 RMK AO2